LIRF/FCO METAR and TAF weather

Enter ICAO airport designator
Station Type Date Time Source
LIRF METAR 2021/05/14 13:50 UTC NOAA

LIRF 141350Z 14003KT 090V220 7000 -RA FEW020 SCT040 15/12 Q1012 NOSIG


Station Type Date Time Source
LIRF Decoded METAR 2021/05/14 13:50 UTC NOAA

Roma Fiumicino, Italy (LIRF) 41-48N 012-14E 3M
May 14, 2021 - 09:50 AM EDT / 2021.05.14 1350 UTC
Wind: from the SE (140 degrees) at 3 MPH (3 KT) (direction variable):0
Visibility: 4 mile(s):0
Sky conditions: partly cloudy
Weather: light rain
Temperature: 59 F (15 C)
Dew Point: 53 F (12 C)
Relative Humidity: 82%
Pressure (altimeter): 29.88 in. Hg (1012 hPa)
ob: LIRF 141350Z 14003KT 090V220 7000 -RA FEW020 SCT040 15/12 Q1012 NOSIG
cycle: 14

Station Type Date Time Source
LIRF TAF 2021/05/14 12:25 UTC NOAA

TAF LIRF 141100Z 1412/1518 22013KT 9999 SCT040
TEMPO 1414/1418 17016G28KT SHRA
BECMG 1417/1419 14010KT
TEMPO 1418/1421 TSRA
BECMG 1421/1423 03007KT
BECMG 1507/1509 33013KT
BECMG 1513/1515 27010KT

Example: see airport list